Time;durP1;ratioP1;P1;durP2;ratioP2;P2;SDS_P1;SDS_P2;PMS_P1;PMS_P2;Temp;Humidity;BMP_temperature;BMP_pressure;BME280_temperature;BME280_humidity;BME280_pressure;Samples;Min_cycle;Max_cycle;Signal;HPM_P1;HPM_P2
2022/04/02 00:02:19;;;;;;;;;;;1.20;99.90;;;;;;5070570;28;20575;-68
2022/04/02 00:04:46;;;;;;;;;;;1.30;99.90;;;;;;5067954;28;20019;-69
2022/04/02 00:07:12;;;;;;;;;;;1.20;99.90;;;;;;5068355;28;19948;-71
2022/04/02 00:09:39;;;;;;;;;;;1.20;99.90;;;;;;5072788;28;19989;-69
2022/04/02 00:12:05;;;;;;;;;;;1.20;99.90;;;;;;5071212;28;20347;-69
2022/04/02 00:14:32;;;;;;;;;;;1.10;99.90;;;;;;5068379;28;19981;-70
2022/04/02 00:17:00;;;;;;;;;;;1.10;99.90;;;;;;5070488;28;19998;-70
2022/04/02 00:19:26;;;;;;;;;;;1.10;99.90;;;;;;5075174;28;19973;-69
2022/04/02 00:21:54;;;;;;;;;;;1.10;99.90;;;;;;5075855;28;19991;-68
2022/04/02 00:24:20;;;;;;;;;;;1.10;99.90;;;;;;5071305;28;20011;-68
2022/04/02 00:26:47;;;;;;;;;;;1.10;99.90;;;;;;5079399;28;20410;-70
2022/04/02 00:29:13;;;;;;;;;;;1.10;99.90;;;;;;5070800;28;19940;-70
2022/04/02 00:31:40;;;;;;;;;;;1.10;99.90;;;;;;5073500;28;19948;-70
2022/04/02 00:34:09;;;;;;;;;;;1.10;99.90;;;;;;5069631;28;19946;-70
2022/04/02 00:36:37;;;;;;;;;;;1.00;99.90;;;;;;5071061;28;20032;-70
2022/04/02 00:39:05;;;;;;;;;;;1.10;99.90;;;;;;5068918;28;20671;-71
2022/04/02 00:41:31;;;;;;;;;;;1.10;99.90;;;;;;5056907;28;19943;-70
2022/04/02 00:43:59;;;;;;;;;;;1.10;99.90;;;;;;5071224;28;20458;-69
2022/04/02 00:46:25;;;;;;;;;;;1.10;99.90;;;;;;5077096;28;19952;-71
2022/04/02 00:48:52;;;;;;;;;;;1.10;99.90;;;;;;5070605;28;20416;-69
2022/04/02 00:51:20;;;;;;;;;;;1.10;99.90;;;;;;5074228;28;19981;-71
2022/04/02 00:53:48;;;;;;;;;;;1.20;99.90;;;;;;5074039;28;19944;-71
2022/04/02 00:56:15;;;;;;;;;;;1.20;99.90;;;;;;5087066;28;19974;-70
2022/04/02 00:58:42;;;;;;;;;;;1.20;99.90;;;;;;5073059;28;19958;-71
2022/04/02 01:01:08;;;;;;;;;;;1.20;99.90;;;;;;5076242;28;20007;-69
2022/04/02 01:03:35;;;;;;;;;;;1.20;99.90;;;;;;5073040;28;20753;-70
2022/04/02 01:06:02;;;;;;;;;;;1.10;99.90;;;;;;5074541;28;20010;-69
2022/04/02 01:08:30;;;;;;;;;;;1.20;99.90;;;;;;5077812;28;19942;-70
2022/04/02 01:10:56;;;;;;;;;;;1.10;99.90;;;;;;5077545;28;19949;-71
2022/04/02 01:13:25;;;;;;;;;;;1.10;99.90;;;;;;5072061;28;19947;-70
2022/04/02 01:15:51;;;;;;;;;;;1.10;99.90;;;;;;5070002;28;19967;-71
2022/04/02 01:18:18;;;;;;;;;;;1.00;99.90;;;;;;5073455;28;19948;-69
2022/04/02 01:20:44;;;;;;;;;;;1.00;99.90;;;;;;5077384;28;20478;-71
2022/04/02 01:23:12;;;;;;;;;;;0.90;99.90;;;;;;5065454;28;19947;-69
2022/04/02 01:25:39;;;;;;;;;;;0.90;99.90;;;;;;5076231;28;19963;-69
2022/04/02 01:28:06;;;;;;;;;;;0.90;99.90;;;;;;5072361;28;20378;-69
2022/04/02 01:30:33;;;;;;;;;;;0.90;99.90;;;;;;5081312;28;19955;-71
2022/04/02 01:32:59;;;;;;;;;;;0.90;99.90;;;;;;5077125;28;19988;-71
2022/04/02 01:35:26;;;;;;;;;;;0.90;99.90;;;;;;5073741;28;20014;-71
2022/04/02 01:37:53;;;;;;;;;;;0.90;99.90;;;;;;5077380;28;19945;-70
2022/04/02 01:40:21;;;;;;;;;;;0.90;99.90;;;;;;5076323;28;19968;-70
2022/04/02 01:42:48;;;;;;;;;;;0.90;99.90;;;;;;5069502;28;19948;-69
2022/04/02 01:45:15;;;;;;;;;;;1.00;99.90;;;;;;5076503;28;19978;-71
2022/04/02 01:47:42;;;;;;;;;;;0.90;99.90;;;;;;5072189;28;19947;-69
2022/04/02 01:50:09;;;;;;;;;;;0.90;99.90;;;;;;5075423;28;19948;-72
2022/04/02 01:52:36;;;;;;;;;;;0.90;99.90;;;;;;5072812;28;19946;-71
2022/04/02 01:55:02;;;;;;;;;;;1.00;99.90;;;;;;5082820;28;20461;-69
2022/04/02 01:57:30;;;;;;;;;;;1.00;99.90;;;;;;5067886;28;19942;-69
2022/04/02 01:59:57;;;;;;;;;;;1.00;99.90;;;;;;5073306;28;19966;-71
2022/04/02 02:02:23;;;;;;;;;;;0.90;99.90;;;;;;5070972;28;19950;-69
2022/04/02 02:04:50;;;;;;;;;;;1.00;99.90;;;;;;5075638;28;19962;-72
2022/04/02 02:07:16;;;;;;;;;;;0.90;99.90;;;;;;5070999;28;20396;-69
2022/04/02 02:09:43;;;;;;;;;;;1.00;99.90;;;;;;5069755;28;19985;-70
2022/04/02 02:12:10;;;;;;;;;;;1.00;99.90;;;;;;5070667;28;19964;-71
2022/04/02 02:14:38;;;;;;;;;;;0.90;99.90;;;;;;5074371;28;19955;-71
2022/04/02 02:17:05;;;;;;;;;;;0.90;99.90;;;;;;5083670;28;19987;-69
2022/04/02 02:19:31;;;;;;;;;;;0.90;99.90;;;;;;5069864;28;20499;-70
2022/04/02 02:21:58;;;;;;;;;;;0.90;99.90;;;;;;5074952;28;19995;-69
2022/04/02 02:24:24;;;;;;;;;;;0.90;99.90;;;;;;5071387;28;20068;-71
2022/04/02 02:26:51;;;;;;;;;;;0.90;99.90;;;;;;5070444;28;20007;-69
2022/04/02 02:29:17;;;;;;;;;;;0.80;99.90;;;;;;5082198;28;20712;-71
2022/04/02 02:31:45;;;;;;;;;;;0.80;99.90;;;;;;5083037;28;19949;-69
2022/04/02 02:36:57;;;;;;;;;;;0.80;99.90;;;;;;5059286;28;20070;-70
2022/04/02 02:39:23;;;;;;;;;;;0.80;99.90;;;;;;5069725;28;19968;-70
2022/04/02 02:41:50;;;;;;;;;;;0.90;99.90;;;;;;5071562;28;20020;-69
2022/04/02 02:44:16;;;;;;;;;;;0.80;99.90;;;;;;5074692;28;19976;-69
2022/04/02 02:46:43;;;;;;;;;;;0.90;99.90;;;;;;5082890;28;20792;-70
2022/04/02 02:49:12;;;;;;;;;;;0.80;99.90;;;;;;5073993;28;19941;-70
2022/04/02 02:51:39;;;;;;;;;;;0.80;99.90;;;;;;5071990;28;19982;-69
2022/04/02 02:54:06;;;;;;;;;;;0.80;99.90;;;;;;5069451;28;20040;-70
2022/04/02 02:56:32;;;;;;;;;;;0.80;99.90;;;;;;5075166;28;19948;-68
2022/04/02 02:58:59;;;;;;;;;;;0.80;99.90;;;;;;5070209;28;19975;-69
2022/04/02 03:01:25;;;;;;;;;;;0.80;99.90;;;;;;5075426;28;19989;-69
2022/04/02 03:03:52;;;;;;;;;;;0.80;99.90;;;;;;5073194;28;20014;-69
2022/04/02 03:06:20;;;;;;;;;;;0.80;99.90;;;;;;5068516;28;19976;-69
2022/04/02 03:08:46;;;;;;;;;;;0.80;99.90;;;;;;5073642;28;20415;-70
2022/04/02 03:11:13;;;;;;;;;;;0.80;99.90;;;;;;5070136;28;19954;-70
2022/04/02 03:13:40;;;;;;;;;;;0.80;99.90;;;;;;5073475;28;20014;-69
2022/04/02 03:16:07;;;;;;;;;;;0.80;99.90;;;;;;5077313;28;19961;-69
2022/04/02 03:18:34;;;;;;;;;;;0.80;99.90;;;;;;5079406;28;19996;-68
2022/04/02 03:21:00;;;;;;;;;;;0.80;99.90;;;;;;5077278;28;19973;-72
2022/04/02 03:23:28;;;;;;;;;;;0.80;99.90;;;;;;5079197;28;20047;-70
2022/04/02 03:25:55;;;;;;;;;;;0.80;99.90;;;;;;5073691;28;19966;-71
2022/04/02 03:28:21;;;;;;;;;;;0.80;99.90;;;;;;5077737;28;19946;-71
2022/04/02 03:30:48;;;;;;;;;;;0.70;99.90;;;;;;5069307;28;20007;-69
2022/04/02 03:33:14;;;;;;;;;;;0.70;99.90;;;;;;5069965;28;20373;-70
2022/04/02 03:35:42;;;;;;;;;;;0.80;99.90;;;;;;5070163;28;19965;-69
2022/04/02 03:38:09;;;;;;;;;;;0.80;99.90;;;;;;5071766;28;19945;-71
2022/04/02 03:40:37;;;;;;;;;;;0.80;99.90;;;;;;5076287;28;20081;-68
2022/04/02 03:43:04;;;;;;;;;;;0.80;99.90;;;;;;5080325;28;19946;-71
2022/04/02 03:45:31;;;;;;;;;;;0.80;99.90;;;;;;5072112;28;19970;-69
2022/04/02 03:47:57;;;;;;;;;;;0.80;99.90;;;;;;5071438;28;20332;-70
2022/04/02 03:50:24;;;;;;;;;;;0.80;99.90;;;;;;5075712;28;20033;-69
2022/04/02 03:52:51;;;;;;;;;;;0.80;99.90;;;;;;5068799;28;19950;-71
2022/04/02 03:55:18;;;;;;;;;;;0.80;99.90;;;;;;5074979;28;20012;-71
2022/04/02 03:57:47;;;;;;;;;;;0.80;99.90;;;;;;5072099;28;20488;-69
2022/04/02 04:00:14;;;;;;;;;;;0.80;99.90;;;;;;5074380;28;19963;-70
2022/04/02 04:02:40;;;;;;;;;;;0.80;99.90;;;;;;5070954;28;19943;-69
2022/04/02 04:05:08;;;;;;;;;;;0.90;99.90;;;;;;5078206;28;19965;-70
2022/04/02 04:07:35;;;;;;;;;;;0.80;99.90;;;;;;5068563;28;19964;-70
2022/04/02 04:10:01;;;;;;;;;;;0.80;99.90;;;;;;5069022;28;19949;-69
2022/04/02 04:12:28;;;;;;;;;;;0.80;99.90;;;;;;5069477;28;19948;-70
2022/04/02 04:14:56;;;;;;;;;;;0.80;99.90;;;;;;5083552;28;20029;-71
2022/04/02 04:17:23;;;;;;;;;;;0.80;99.90;;;;;;5072687;28;19994;-70
2022/04/02 04:19:50;;;;;;;;;;;0.90;99.90;;;;;;5072210;28;20072;-69
2022/04/02 04:22:17;;;;;;;;;;;0.80;99.90;;;;;;5072417;28;20012;-68
2022/04/02 04:24:44;;;;;;;;;;;0.90;99.90;;;;;;5102910;22;19966;-71
2022/04/02 04:27:10;;;;;;;;;;;0.90;99.90;;;;;;5062161;28;20038;-69
2022/04/02 04:29:37;;;;;;;;;;;0.90;99.90;;;;;;5065630;28;20005;-68
2022/04/02 04:32:06;;;;;;;;;;;0.90;99.90;;;;;;5064470;28;20386;-69
2022/04/02 04:34:33;;;;;;;;;;;0.90;99.90;;;;;;5068323;28;20003;-69
2022/04/02 04:36:59;;;;;;;;;;;0.90;99.90;;;;;;5058076;28;20059;-69
2022/04/02 04:39:26;;;;;;;;;;;0.90;99.90;;;;;;5058011;28;19993;-73
2022/04/02 04:41:52;;;;;;;;;;;0.90;99.90;;;;;;5068093;28;19965;-69
2022/04/02 04:44:19;;;;;;;;;;;0.80;99.90;;;;;;5059778;28;19945;-68
2022/04/02 04:46:46;;;;;;;;;;;0.90;99.90;;;;;;5063624;28;20055;-69
2022/04/02 04:49:14;;;;;;;;;;;0.90;99.90;;;;;;5066282;28;19954;-69
2022/04/02 04:51:40;;;;;;;;;;;0.80;99.90;;;;;;5062734;28;19958;-70
2022/04/02 04:54:07;;;;;;;;;;;0.90;99.90;;;;;;5066014;28;20013;-68
2022/04/02 04:56:33;;;;;;;;;;;0.90;99.90;;;;;;5065602;28;19968;-69
2022/04/02 04:59:00;;;;;;;;;;;0.80;99.90;;;;;;5064373;28;20006;-69
2022/04/02 05:01:27;;;;;;;;;;;0.90;99.90;;;;;;5069239;28;20416;-68
2022/04/02 05:03:54;;;;;;;;;;;0.90;99.90;;;;;;5070543;28;19998;-69
2022/04/02 05:06:22;;;;;;;;;;;0.90;99.90;;;;;;5057335;28;19995;-69
2022/04/02 05:08:48;;;;;;;;;;;0.90;99.90;;;;;;5065217;28;19953;-69
2022/04/02 05:11:15;;;;;;;;;;;0.90;99.90;;;;;;5065064;28;20320;-68
2022/04/02 05:13:42;;;;;;;;;;;0.90;99.90;;;;;;5062400;28;20061;-69
2022/04/02 05:16:09;;;;;;;;;;;0.90;99.90;;;;;;5066713;28;19962;-69
2022/04/02 05:18:36;;;;;;;;;;;1.00;99.90;;;;;;5066225;28;19985;-68
2022/04/02 05:21:03;;;;;;;;;;;0.90;99.90;;;;;;5055338;28;20034;-68
2022/04/02 05:23:31;;;;;;;;;;;1.00;99.90;;;;;;5058161;28;20060;-69
2022/04/02 05:25:58;;;;;;;;;;;1.00;99.90;;;;;;5066764;28;19966;-68
2022/04/02 05:28:24;;;;;;;;;;;1.00;99.90;;;;;;5063243;28;20328;-69
2022/04/02 05:30:51;;;;;;;;;;;1.00;99.90;;;;;;5065792;28;19948;-69
2022/04/02 05:33:18;;;;;;;;;;;1.00;99.90;;;;;;5075383;28;19954;-68
2022/04/02 05:35:44;;;;;;;;;;;1.00;99.90;;;;;;5069212;28;19970;-69
2022/04/02 05:38:11;;;;;;;;;;;1.00;99.90;;;;;;5065907;28;19941;-69
2022/04/02 05:40:39;;;;;;;;;;;1.00;99.90;;;;;;5069065;28;19959;-68
2022/04/02 05:43:06;;;;;;;;;;;1.00;99.90;;;;;;5067885;28;20455;-69
2022/04/02 05:45:33;;;;;;;;;;;1.00;99.90;;;;;;5061347;28;19967;-69
2022/04/02 05:48:00;;;;;;;;;;;1.00;99.90;;;;;;5069836;28;20430;-69
2022/04/02 05:50:27;;;;;;;;;;;1.00;99.90;;;;;;5078732;28;19983;-70
2022/04/02 05:52:53;;;;;;;;;;;1.00;99.90;;;;;;5063707;28;20018;-69
2022/04/02 05:55:20;;;;;;;;;;;0.90;99.90;;;;;;5079810;28;20035;-69
2022/04/02 05:57:48;;;;;;;;;;;1.00;99.90;;;;;;5066648;28;19939;-69
2022/04/02 06:00:16;;;;;;;;;;;1.10;99.90;;;;;;5069397;28;20060;-70
2022/04/02 06:02:44;;;;;;;;;;;1.00;99.90;;;;;;5064630;28;20050;-69
2022/04/02 06:05:11;;;;;;;;;;;1.00;99.90;;;;;;5076264;28;20039;-69
2022/04/02 06:07:38;;;;;;;;;;;1.00;99.90;;;;;;5066138;28;19940;-68
2022/04/02 06:10:05;;;;;;;;;;;1.00;99.90;;;;;;5066940;28;19942;-68
2022/04/02 06:12:32;;;;;;;;;;;1.00;99.90;;;;;;5067996;28;20014;-69
2022/04/02 06:15:00;;;;;;;;;;;1.00;99.90;;;;;;5064861;28;20039;-68
2022/04/02 06:17:27;;;;;;;;;;;1.00;99.90;;;;;;5064825;28;20633;-68
2022/04/02 06:19:53;;;;;;;;;;;1.10;99.90;;;;;;5062316;28;20357;-68
2022/04/02 06:22:20;;;;;;;;;;;1.10;99.90;;;;;;5061221;28;20612;-69
2022/04/02 06:24:46;;;;;;;;;;;1.10;99.90;;;;;;5070953;28;19959;-68
2022/04/02 06:27:13;;;;;;;;;;;1.10;99.90;;;;;;5060003;28;20540;-67
2022/04/02 06:29:39;;;;;;;;;;;1.20;99.90;;;;;;5057107;28;19949;-69
2022/04/02 06:32:08;;;;;;;;;;;1.20;99.90;;;;;;5068051;28;20086;-68
2022/04/02 06:34:35;;;;;;;;;;;1.30;99.90;;;;;;5071759;28;19948;-73
2022/04/02 06:37:01;;;;;;;;;;;1.30;99.90;;;;;;5071369;28;20072;-68
2022/04/02 06:39:28;;;;;;;;;;;1.30;99.90;;;;;;5066135;28;19946;-70
2022/04/02 06:41:55;;;;;;;;;;;1.30;99.90;;;;;;5060116;28;19971;-68
2022/04/02 06:44:21;;;;;;;;;;;1.40;99.90;;;;;;5068999;28;19945;-70
2022/04/02 06:46:48;;;;;;;;;;;1.40;99.90;;;;;;5068596;28;19961;-69
2022/04/02 06:49:15;;;;;;;;;;;1.50;99.90;;;;;;5068136;28;19990;-70
2022/04/02 06:51:42;;;;;;;;;;;1.60;99.90;;;;;;5078954;28;20052;-70
2022/04/02 06:54:09;;;;;;;;;;;1.70;99.90;;;;;;5070013;28;19945;-69
2022/04/02 06:56:35;;;;;;;;;;;1.70;99.90;;;;;;5068372;28;19973;-70
2022/04/02 06:59:02;;;;;;;;;;;1.80;99.90;;;;;;5071241;28;19960;-71
2022/04/02 07:01:29;;;;;;;;;;;1.90;99.90;;;;;;5068696;28;20012;-71
2022/04/02 07:03:55;;;;;;;;;;;2.00;99.90;;;;;;5064316;28;19963;-68
2022/04/02 07:07:32;;;;;;;;;;;2.10;99.90;;;;;;5145652;27;19949;-70
2022/04/02 07:09:58;;;;;;;;;;;2.20;99.90;;;;;;5146206;27;19951;-69
2022/04/02 07:12:25;;;;;;;;;;;2.30;99.90;;;;;;5141300;27;19956;-69
2022/04/02 07:14:51;;;;;;;;;;;2.40;99.90;;;;;;5139886;27;20011;-70
2022/04/02 07:17:18;;;;;;;;;;;2.50;99.90;;;;;;5121023;28;19963;-69
2022/04/02 07:19:46;;;;;;;;;;;2.60;99.90;;;;;;5123203;27;19985;-69
2022/04/02 07:22:14;;;;;;;;;;;2.70;99.90;;;;;;5123760;27;20373;-71
2022/04/02 07:24:42;;;;;;;;;;;2.80;99.90;;;;;;5123128;27;20015;-71
2022/04/02 07:27:09;;;;;;;;;;;2.90;99.90;;;;;;5121897;27;19971;-70
2022/04/02 07:29:35;;;;;;;;;;;2.90;99.90;;;;;;5121178;27;20521;-70
2022/04/02 07:32:02;;;;;;;;;;;3.00;99.90;;;;;;5120377;27;20430;-69
2022/04/02 07:34:29;;;;;;;;;;;3.00;99.90;;;;;;5123168;27;19998;-69
2022/04/02 07:37:06;;;;;;;;;;;3.00;99.90;;;;;;5122766;27;21328;-69
2022/04/02 07:39:37;;;;;;;;;;;3.10;99.90;;;;;;5124602;27;20051;-70
2022/04/02 07:42:08;;;;;;;;;;;3.10;99.90;;;;;;5124446;27;20347;-68
2022/04/02 07:44:40;;;;;;;;;;;3.10;99.90;;;;;;5123831;27;19944;-69
2022/04/02 07:47:07;;;;;;;;;;;3.10;99.90;;;;;;5123598;27;19984;-68
2022/04/02 07:49:35;;;;;;;;;;;3.30;99.90;;;;;;5122408;27;19948;-70
2022/04/02 07:52:03;;;;;;;;;;;3.40;99.90;;;;;;5124064;27;19959;-70
2022/04/02 07:54:32;;;;;;;;;;;3.50;99.90;;;;;;5123333;27;19959;-78
2022/04/02 07:57:02;;;;;;;;;;;3.60;99.90;;;;;;5120474;27;19981;-73
2022/04/02 07:59:34;;;;;;;;;;;3.70;99.90;;;;;;5118422;27;19987;-70
2022/04/02 08:02:01;;;;;;;;;;;3.80;99.90;;;;;;5122083;27;19950;-70
2022/04/02 08:04:28;;;;;;;;;;;3.90;99.90;;;;;;5121292;27;20380;-71
2022/04/02 08:06:55;;;;;;;;;;;3.90;99.90;;;;;;5120649;27;19959;-70
2022/04/02 08:09:22;;;;;;;;;;;4.00;99.90;;;;;;5121402;28;20062;-70
2022/04/02 08:11:49;;;;;;;;;;;4.10;99.90;;;;;;5121890;27;19966;-70
2022/04/02 08:14:16;;;;;;;;;;;4.10;99.90;;;;;;5122319;27;19998;-70
2022/04/02 08:16:44;;;;;;;;;;;4.10;99.90;;;;;;5120437;27;19968;-69
2022/04/02 08:19:11;;;;;;;;;;;4.10;99.90;;;;;;5108694;28;19980;-69
2022/04/02 08:21:38;;;;;;;;;;;4.10;99.90;;;;;;5106929;28;20027;-69
2022/04/02 08:24:04;;;;;;;;;;;4.20;99.90;;;;;;5109027;27;20014;-69
2022/04/02 08:26:37;;;;;;;;;;;4.30;99.90;;;;;;5107662;27;19977;-69
2022/04/02 08:29:10;;;;;;;;;;;4.30;99.90;;;;;;5107283;27;20067;-69
2022/04/02 08:31:44;;;;;;;;;;;4.40;99.90;;;;;;5117664;27;20412;-71
2022/04/02 08:34:17;;;;;;;;;;;4.40;99.90;;;;;;5113762;27;20020;-72
2022/04/02 08:36:49;;;;;;;;;;;4.30;99.90;;;;;;5118374;27;20072;-70
2022/04/02 08:39:19;;;;;;;;;;;4.30;99.90;;;;;;5113953;27;20324;-69
2022/04/02 08:42:10;;;;;;;;;;;4.20;99.90;;;;;;5111247;27;19947;-69
2022/04/02 08:44:50;;;;;;;;;;;4.30;99.90;;;;;;5101751;27;20019;-69
2022/04/02 08:47:26;;;;;;;;;;;4.40;99.90;;;;;;5111895;27;19962;-69
2022/04/02 08:50:03;;;;;;;;;;;4.40;99.90;;;;;;5113876;27;19955;-69
2022/04/02 08:52:39;;;;;;;;;;;4.40;99.90;;;;;;5109901;27;20022;-70
2022/04/02 08:55:13;;;;;;;;;;;4.40;99.90;;;;;;5105517;28;19966;-69
2022/04/02 08:57:55;;;;;;;;;;;4.40;99.90;;;;;;5107825;27;19945;-70
2022/04/02 09:00:24;;;;;;;;;;;4.40;99.90;;;;;;5103972;27;19940;-70
2022/04/02 09:03:16;;;;;;;;;;;4.50;99.90;;;;;;5107084;28;19947;-71
2022/04/02 09:05:54;;;;;;;;;;;4.50;99.90;;;;;;5112174;27;19989;-70
2022/04/02 09:08:41;;;;;;;;;;;4.60;99.90;;;;;;5106873;27;19950;-72
2022/04/02 09:11:22;;;;;;;;;;;4.70;99.90;;;;;;5106064;27;20391;-72
2022/04/02 09:14:22;;;;;;;;;;;4.70;99.90;;;;;;5109094;27;19951;-72
2022/04/02 09:17:01;;;;;;;;;;;4.80;99.90;;;;;;5108160;27;19970;-70
2022/04/02 09:19:30;;;;;;;;;;;4.70;99.90;;;;;;5106434;28;19957;-71
2022/04/02 09:22:03;;;;;;;;;;;4.70;99.90;;;;;;5106553;27;20012;-68
2022/04/02 09:24:38;;;;;;;;;;;4.60;99.90;;;;;;5103449;28;19959;-72
2022/04/02 09:27:23;;;;;;;;;;;4.70;99.90;;;;;;5104794;28;19967;-70
2022/04/02 09:30:01;;;;;;;;;;;4.70;99.90;;;;;;5086441;28;20456;-64
2022/04/02 09:32:36;;;;;;;;;;;4.90;99.90;;;;;;5109092;28;19950;-72
2022/04/02 09:35:20;;;;;;;;;;;5.10;99.90;;;;;;5103470;28;20015;-73
2022/04/02 09:38:06;;;;;;;;;;;5.10;99.90;;;;;;5102880;28;19953;-70
2022/04/02 09:40:36;;;;;;;;;;;5.00;99.90;;;;;;5099966;28;20145;-70
2022/04/02 09:43:11;;;;;;;;;;;5.10;99.90;;;;;;5104253;28;20004;-70
2022/04/02 09:45:41;;;;;;;;;;;5.10;99.90;;;;;;5104384;28;20020;-71
2022/04/02 09:48:13;;;;;;;;;;;5.30;99.90;;;;;;5101075;28;20344;-72
2022/04/02 09:50:41;;;;;;;;;;;5.40;99.90;;;;;;5106425;28;20199;-72
2022/04/02 09:53:15;;;;;;;;;;;5.40;99.90;;;;;;5106731;28;19949;-69
2022/04/02 09:55:45;;;;;;;;;;;5.40;99.90;;;;;;5106985;28;19998;-72
2022/04/02 09:58:40;;;;;;;;;;;5.50;99.90;;;;;;5105555;28;19948;-72
2022/04/02 10:01:08;;;;;;;;;;;5.50;99.90;;;;;;5106025;28;19945;-71
2022/04/02 10:03:40;;;;;;;;;;;5.20;99.90;;;;;;5101412;27;19976;-71
2022/04/02 10:06:13;;;;;;;;;;;5.40;99.90;;;;;;5103125;28;20462;-72
2022/04/02 10:08:47;;;;;;;;;;;5.70;99.90;;;;;;5103764;28;20007;-70
2022/04/02 10:11:16;;;;;;;;;;;5.90;99.90;;;;;;5107338;27;19966;-70
2022/04/02 10:13:44;;;;;;;;;;;5.90;99.90;;;;;;5101793;27;19940;-70
2022/04/02 10:16:13;;;;;;;;;;;6.00;99.90;;;;;;5106784;28;20012;-72
2022/04/02 10:18:42;;;;;;;;;;;6.10;99.90;;;;;;5106171;27;19948;-70
2022/04/02 10:21:10;;;;;;;;;;;6.20;99.90;;;;;;5105915;27;20083;-72
2022/04/02 10:23:37;;;;;;;;;;;6.40;99.90;;;;;;5106219;28;19957;-69
2022/04/02 10:26:09;;;;;;;;;;;6.50;99.90;;;;;;5105146;28;20005;-70
2022/04/02 10:28:40;;;;;;;;;;;6.50;99.90;;;;;;5104503;28;20385;-70
2022/04/02 10:31:07;;;;;;;;;;;6.60;99.90;;;;;;5103230;27;20302;-70
2022/04/02 10:33:36;;;;;;;;;;;6.70;99.90;;;;;;5103849;28;20032;-72
2022/04/02 10:36:04;;;;;;;;;;;7.20;99.90;;;;;;5105869;28;20499;-72
2022/04/02 10:38:34;;;;;;;;;;;7.30;99.90;;;;;;5105750;27;20494;-72
2022/04/02 10:41:05;;;;;;;;;;;7.20;99.90;;;;;;5105975;28;19978;-72
2022/04/02 10:43:37;;;;;;;;;;;7.10;99.90;;;;;;5107458;28;19954;-71
2022/04/02 10:46:05;;;;;;;;;;;7.10;99.90;;;;;;5106546;28;19969;-72
2022/04/02 10:48:40;;;;;;;;;;;7.20;99.90;;;;;;5105942;28;19967;-72
2022/04/02 10:51:08;;;;;;;;;;;7.30;99.90;;;;;;5104803;28;19969;-72
2022/04/02 10:53:38;;;;;;;;;;;7.30;99.90;;;;;;5106491;28;20004;-72
2022/04/02 10:56:07;;;;;;;;;;;7.30;99.90;;;;;;5106285;28;19998;-71
2022/04/02 10:58:36;;;;;;;;;;;7.40;99.90;;;;;;5106736;28;20382;-72
2022/04/02 11:01:06;;;;;;;1.40;0.90;;;7.50;99.90;;;;;;5106016;28;20609;-72
2022/04/02 11:03:39;;;;;;;;;;;7.60;99.90;;;;;;5103352;28;19944;-76
2022/04/02 11:06:05;;;;;;;;;;;7.50;99.90;;;;;;5111766;28;19971;-71
2022/04/02 11:08:32;;;;;;;;;;;7.60;99.90;;;;;;5108761;28;19964;-72
2022/04/02 11:11:00;;;;;;;;;;;7.80;99.90;;;;;;5108078;28;20022;-71
2022/04/02 11:13:29;;;;;;;3.40;1.80;;;8.20;99.90;;;;;;5117273;28;20430;-72
2022/04/02 11:15:57;;;;;;;1.67;1.57;;;8.60;99.90;;;;;;5103187;28;20271;-72
2022/04/02 11:18:25;;;;;;;1.70;1.60;;;9.00;99.90;;;;;;5104632;28;20533;-72
2022/04/02 11:21:01;;;;;;;3.67;2.93;;;9.30;99.90;;;;;;5104968;28;20562;-70
2022/04/02 11:23:42;;;;;;;5.10;2.00;;;9.60;99.90;;;;;;5105690;28;20521;-70
2022/04/02 11:26:12;;;;;;;2.33;1.83;;;9.70;99.90;;;;;;5110805;27;20491;-70
2022/04/02 11:28:44;;;;;;;3.07;1.50;;;9.70;99.90;;;;;;5118179;28;20821;-71
2022/04/02 11:31:13;;;;;;;2.80;1.50;;;9.90;99.90;;;;;;5113645;27;20466;-72
2022/04/02 11:33:51;;;;;;;6.07;1.50;;;10.30;99.90;;;;;;5113228;28;21042;-71
2022/04/02 11:36:22;;;;;;;1.93;1.50;;;10.60;99.90;;;;;;5105831;28;20483;-72
2022/04/02 11:38:52;;;;;;;1.70;1.60;;;10.50;99.90;;;;;;5116117;28;20441;-71
2022/04/02 11:41:21;;;;;;;2.10;1.90;;;10.10;99.90;;;;;;5105651;28;20516;-70
2022/04/02 11:43:51;;;;;;;2.07;1.40;;;9.60;99.90;;;;;;5105301;28;20518;-70
2022/04/02 11:46:21;;;;;;;1.80;1.57;;;9.60;99.90;;;;;;5104010;22;20521;-72
2022/04/02 11:48:54;;;;;;;1.97;1.30;;;9.70;99.90;;;;;;5068648;28;20487;-70
2022/04/02 11:51:22;;;;;;;2.13;1.87;;;10.30;99.90;;;;;;5066412;28;20479;-70
2022/04/02 11:53:49;;;;;;;1.40;1.30;;;11.20;99.90;;;;;;5071080;28;20447;-70
2022/04/02 11:56:28;;;;;;;2.63;1.30;;;11.80;99.90;;;;;;5071880;28;20471;-70
2022/04/02 11:58:57;;;;;;;1.57;1.40;;;12.60;99.90;;;;;;5072563;28;20457;-72
2022/04/02 12:01:25;;;;;;;1.73;1.63;;;13.80;99.90;;;;;;5071023;28;20447;-70
2022/04/02 12:04:12;;;;;;;1.83;1.67;;;14.70;97.60;;;;;;5071528;28;21154;-70
2022/04/02 12:06:39;;;;;;;1.57;1.47;;;15.30;95.30;;;;;;5072189;28;20459;-72
2022/04/02 12:09:12;;;;;;;2.33;1.37;;;15.50;93.60;;;;;;5062001;28;20447;-71
2022/04/02 12:11:42;;;;;;;2.40;1.80;;;15.20;92.70;;;;;;5070905;28;20562;-70
2022/04/02 12:14:10;;;;;;;0.40;0.40;;;15.70;90.70;;;;;;5059687;28;20415;-70
2022/04/02 12:16:41;;;;;;;1.93;1.83;;;16.50;87.50;;;;;;5069289;28;20475;-71
2022/04/02 12:19:12;;;;;;;2.70;1.83;;;16.30;86.30;;;;;;5070110;28;20541;-71
2022/04/02 12:21:43;;;;;;;1.40;1.30;;;16.80;87.50;;;;;;5070145;28;20488;-71
2022/04/02 12:24:11;;;;;;;1.67;1.57;;;17.20;84.90;;;;;;5071595;28;20455;-69
2022/04/02 12:26:38;;;;;;;4.00;2.43;;;16.50;81.30;;;;;;5070765;28;20470;-71
2022/04/02 12:29:06;;;;;;;1.83;1.30;;;15.20;78.70;;;;;;5072355;28;20529;-70
2022/04/02 12:31:34;;;;;;;2.30;2.10;;;13.80;80.60;;;;;;5078864;28;20967;-71
2022/04/02 12:34:03;;;;;;;2.07;1.77;;;12.30;85.80;;;;;;5081426;28;20454;-71
2022/04/02 12:36:32;;;;;;;3.27;2.50;;;11.00;88.20;;;;;;5077885;28;20475;-70
2022/04/02 12:39:05;;;;;;;2.30;2.10;;;10.30;90.10;;;;;;5072808;28;20494;-69
2022/04/02 12:41:33;;;;;;;3.47;2.60;;;9.70;91.80;;;;;;5070329;28;20533;-71
2022/04/02 12:44:01;;;;;;;2.23;1.80;;;9.40;92.50;;;;;;5070615;28;20511;-70
2022/04/02 12:46:29;;;;;;;6.70;2.40;;;9.00;93.40;;;;;;5069059;28;20866;-70
2022/04/02 12:48:57;;;;;;;4.07;2.43;;;8.80;94.60;;;;;;5071061;28;20483;-69
2022/04/02 12:51:25;;;;;;;3.10;1.80;;;8.80;95.00;;;;;;5070254;28;20526;-69
2022/04/02 12:53:59;;;;;;;2.37;2.17;;;8.60;95.40;;;;;;5070649;28;20463;-69
2022/04/02 12:56:28;;;;;;;2.40;2.20;;;8.60;96.10;;;;;;5067836;28;20513;-70
2022/04/02 12:58:56;;;;;;;2.37;2.17;;;8.60;95.30;;;;;;5064715;28;20435;-71
2022/04/02 13:01:29;;;;;;;2.33;2.10;;;8.30;95.50;;;;;;5070127;28;20861;-71
2022/04/02 13:04:08;;;;;;;4.30;2.47;;;8.20;96.40;;;;;;5069618;28;20446;-70
2022/04/02 13:06:46;;;;;;;3.00;2.77;;;8.00;96.10;;;;;;5069220;28;20858;-71
2022/04/02 13:09:15;;;;;;;3.37;2.97;;;7.90;96.80;;;;;;5069363;28;20475;-69
2022/04/02 13:11:46;;;;;;;4.23;2.80;;;8.00;97.40;;;;;;5068911;28;20459;-69
2022/04/02 13:14:17;;;;;;;3.17;2.70;;;8.00;97.30;;;;;;5060340;28;20454;-71
2022/04/02 13:16:45;;;;;;;2.20;1.97;;;8.00;97.80;;;;;;5066948;28;20477;-71
2022/04/02 13:22:08;;;;;;;2.80;2.57;;;7.80;97.70;;;;;;5068482;28;20832;-70
2022/04/02 13:24:52;;;;;;;2.80;2.50;;;7.80;97.60;;;;;;5065960;28;20464;-70
2022/04/02 13:27:57;;;;;;;1.90;1.80;;;7.80;97.70;;;;;;5068517;28;20555;-71
2022/04/02 13:30:33;;;;;;;3.80;2.03;;;7.50;97.20;;;;;;5072494;28;21039;-71
2022/04/02 13:33:30;;;;;;;3.03;2.73;;;7.40;97.70;;;;;;5069283;28;20474;-70
2022/04/02 13:36:03;;;;;;;3.25;2.53;;;7.20;98.40;;;;;;5070381;28;20463;-70
2022/04/02 13:38:52;;;;;;;3.17;2.87;;;7.10;99.10;;;;;;5069873;28;20197;-69
2022/04/02 13:41:25;;;;;;;3.60;3.08;;;7.00;99.90;;;;;;5068159;28;20458;-69
2022/04/02 13:43:54;;;;;;;3.97;2.90;;;6.80;99.90;;;;;;5068976;28;20974;-71
2022/04/02 13:46:24;;;;;;;2.80;2.47;;;6.70;99.90;;;;;;5069112;28;20237;-70
2022/04/02 13:48:58;;;;;;;2.35;2.15;;;6.60;99.90;;;;;;5069704;28;20791;-69
2022/04/02 13:51:37;;;;;;;3.05;2.55;;;6.50;99.90;;;;;;5069339;28;20243;-69
2022/04/02 13:54:07;;;;;;;3.00;2.50;;;6.50;99.90;;;;;;5069660;28;20253;-70
2022/04/02 13:56:37;;;;;;;4.18;2.60;;;6.50;99.90;;;;;;5062165;28;20602;-69
2022/04/02 13:59:06;;;;;;;2.40;2.20;;;6.40;99.90;;;;;;5068982;28;20208;-70
2022/04/02 14:01:38;;;;;;;2.67;2.45;;;6.20;99.90;;;;;;5066922;28;20586;-70
2022/04/02 14:04:10;;;;;;;3.35;2.50;;;6.10;99.90;;;;;;5066051;28;20303;-71
2022/04/02 14:06:39;;;;;;;2.65;2.45;;;6.00;99.90;;;;;;5069669;28;20224;-71
2022/04/02 14:09:10;;;;;;;3.13;2.92;;;5.90;99.90;;;;;;5069475;28;20316;-71
2022/04/02 14:11:38;;;;;;;3.63;2.63;;;5.90;99.90;;;;;;5067578;28;20229;-71
2022/04/02 14:14:20;;;;;;;3.78;3.30;;;5.80;99.90;;;;;;5069349;28;20204;-70
2022/04/02 14:17:02;;;;;;;3.20;2.83;;;5.60;99.90;;;;;;5067437;28;20224;-71
2022/04/02 14:19:40;;;;;;;2.92;2.65;;;5.60;99.90;;;;;;5068810;28;20291;-70
2022/04/02 14:22:08;;;;;;;2.63;2.42;;;5.50;99.90;;;;;;5065919;28;20555;-70
2022/04/02 14:24:47;;;;;;;3.65;2.85;;;5.50;99.90;;;;;;5075237;28;20751;-70
2022/04/02 14:27:26;;;;;;;2.95;2.75;;;5.50;99.90;;;;;;5055587;28;20229;-70